createdAt,value
2023-04-27T00:14:46.222Z,46.8
2023-04-27T00:34:46.182Z,46.7
2023-04-27T00:54:46.152Z,46.7
2023-04-27T01:14:46.145Z,46.6
2023-04-27T01:34:46.133Z,46.6
2023-04-27T01:54:46.121Z,46.5
2023-04-27T02:14:46.070Z,46.5
2023-04-27T02:34:46.025Z,46.5
2023-04-27T02:54:46.017Z,46.4
2023-04-27T03:14:45.990Z,46.4
2023-04-27T03:34:45.942Z,45.9
2023-04-27T03:54:46.068Z,46.4
2023-04-27T04:14:45.947Z,46.6
2023-04-27T04:34:45.924Z,46.7
2023-04-27T04:54:45.865Z,45.0
2023-04-27T05:14:45.853Z,46.3
2023-04-27T05:34:45.839Z,46.2
2023-04-27T05:54:45.812Z,46.6
2023-04-27T06:14:45.820Z,46.8
2023-04-27T06:34:45.732Z,45.5
2023-04-27T06:54:45.725Z,46.0
2023-04-27T07:14:45.717Z,46.5
2023-04-27T07:34:45.681Z,47.0
2023-04-27T07:54:45.702Z,46.2
2023-04-27T08:14:45.743Z,44.7
2023-04-27T08:34:45.608Z,44.9
2023-04-27T08:54:45.705Z,44.0
2023-04-27T09:14:45.567Z,44.0
2023-04-27T09:34:45.629Z,44.0
2023-04-27T09:54:45.483Z,44.0
2023-04-27T10:14:45.613Z,44.2
2023-04-27T10:34:45.416Z,44.4
2023-04-27T10:54:45.435Z,45.0
2023-04-27T11:14:45.427Z,46.1
2023-04-27T11:34:45.382Z,46.4
2023-04-27T11:54:45.339Z,45.8
2023-04-27T12:14:45.302Z,46.0
2023-04-27T12:34:45.391Z,46.3
2023-04-27T12:54:45.272Z,46.4
2023-04-27T13:14:45.290Z,46.6
2023-04-27T13:34:45.210Z,46.8
2023-04-27T13:54:45.266Z,46.9
2023-04-27T14:14:45.276Z,47.0
2023-04-27T14:34:45.128Z,46.9
2023-04-27T14:54:45.127Z,46.9
2023-04-27T15:14:45.123Z,46.9
2023-04-27T15:34:45.191Z,46.6
2023-04-27T15:54:45.068Z,46.5
2023-04-27T16:14:45.033Z,46.6
2023-04-27T16:34:45.058Z,46.7
2023-04-27T16:54:44.979Z,46.8
2023-04-27T17:14:44.969Z,46.9
2023-04-27T17:34:44.984Z,47.0
2023-04-27T17:54:44.916Z,47.1
2023-04-27T18:14:44.872Z,47.1
2023-04-27T18:34:44.982Z,47.1
2023-04-27T18:54:44.806Z,47.3
2023-04-27T19:14:44.912Z,47.5
2023-04-27T19:34:44.770Z,47.7
2023-04-27T19:54:44.721Z,47.9
2023-04-27T20:14:44.768Z,47.9
2023-04-27T20:34:44.707Z,47.4
2023-04-27T20:54:44.691Z,47.4
2023-04-27T21:14:44.629Z,47.4
2023-04-27T21:34:44.597Z,47.5
2023-04-27T21:54:44.617Z,47.6
2023-04-27T22:14:44.557Z,47.6
2023-04-27T22:34:44.576Z,47.6
2023-04-27T22:54:44.549Z,47.6
2023-04-27T23:14:44.476Z,47.7
2023-04-27T23:34:44.508Z,47.7
2023-04-27T23:54:44.475Z,47.7
